Terminal Aerodrome Forecast
Issued by NWS Twin Cities, MN

Home | Current Version | Previous Version | Text Only | Print | Product List | Glossary Off
Versions: 1 2 3 4 5 6 7 8 9 10 11 12 13 14 15 16 17 18 19 20 21 22 23 24 25 26

000
FTUS43 KMPX 180800 AAA
TAFMSP
TAF AMD
KMSP 180851Z 1809/1912 03006KT P6SM FEW060
     FM181100 06006KT 6SM BR FEW008 SCT250
     FM181300 10008KT P6SM SCT012 SCT025 BKN090
     FM181800 14010KT P6SM SCT045=

USA.gov is the U.S. government's official web portal to all federal, state and local government web resources and services.